Time;durP1;ratioP1;P1;durP2;ratioP2;P2;SDS_P1;SDS_P2;PMS_P1;PMS_P2;Temp;Humidity;BMP_temperature;BMP_pressure;BME280_temperature;BME280_humidity;BME280_pressure;Samples;Min_cycle;Max_cycle;Signal;HPM_P1;HPM_P2
2022/12/23 00:00:26;;;;;;;12.32;2.35;;;;;;;6.32;100.00;99956.44;4945577;28;20051;-84
2022/12/23 00:02:53;;;;;;;15.13;3.03;;;;;;;6.08;100.00;99919.94;4946691;28;20135;-84
2022/12/23 00:05:20;;;;;;;8.85;2.50;;;;;;;6.23;100.00;99955.00;4946319;28;20069;-84
2022/12/23 00:07:46;;;;;;;22.52;2.88;;;;;;;5.98;100.00;99922.88;4947076;28;20062;-84
2022/12/23 00:10:13;;;;;;;14.10;2.78;;;;;;;5.73;100.00;99882.03;4946840;28;20052;-85
2022/12/23 00:15:25;;;;;;;12.23;3.17;;;;;;;6.23;100.00;99967.13;4945502;29;20441;-84
2022/12/23 00:17:52;;;;;;;14.65;2.75;;;;;;;5.79;100.00;99897.44;4940187;28;20462;-84
2022/12/23 00:20:19;;;;;;;17.23;4.18;;;;;;;6.02;100.00;99933.13;4952965;28;20051;-84
2022/12/23 00:23:03;;;;;;;20.10;4.57;;;;;;;5.81;100.00;99915.59;4948255;29;20054;-84
2022/12/23 00:25:42;;;;;;;12.30;3.25;;;;;;;5.75;100.00;99927.00;4945438;28;20051;-85
2022/12/23 00:28:22;;;;;;;16.05;3.30;;;;;;;5.98;100.00;99951.44;4945728;28;20043;-84
2022/12/23 00:30:50;;;;;;;10.52;2.30;;;;;;;5.69;100.00;99930.63;4944618;28;20047;-84
2022/12/23 00:33:19;;;;;;;10.82;2.72;;;;;;;6.01;100.00;99985.16;4942418;28;20066;-83
2022/12/23 00:35:47;;;;;;;13.73;4.25;;;;;;;5.73;100.00;99936.59;4959630;28;20054;-83
2022/12/23 00:38:15;;;;;;;10.85;2.80;;;;;;;5.39;100.00;99866.66;4945196;28;20126;-84
2022/12/23 00:43:29;;;;;;;9.70;2.05;;;;;;;5.83;100.00;99974.38;4952536;28;20055;-84
2022/12/23 00:45:55;;;;;;;12.95;2.53;;;;;;;5.82;100.00;99962.28;4952172;28;20051;-84
2022/12/23 00:51:10;;;;;;;20.08;5.05;;;;;;;5.41;100.00;99933.19;4946106;28;20811;-84
2022/12/23 00:53:40;;;;;;;18.75;3.28;;;;;;;5.34;100.00;99931.69;4945165;28;20074;-84
2022/12/23 00:56:06;;;;;;;12.20;3.65;;;;;;;5.69;100.00;99979.13;4948651;28;20103;-84
2022/12/23 00:58:33;;;;;;;12.60;2.30;;;;;;;5.23;100.00;99905.19;4954073;28;20055;-84
2022/12/23 01:06:31;;;;;;;21.20;3.70;;;;;;;5.34;100.00;99929.09;4955070;29;20515;-84
2022/12/23 01:08:57;;;;;;;13.60;2.50;;;;;;;5.31;100.00;99943.00;4951213;28;20119;-84
2022/12/23 01:11:24;;;;;;;19.02;3.33;;;;;;;5.46;100.00;99953.84;4948662;28;20149;-84
2022/12/23 01:13:51;;;;;;;16.35;2.65;;;;;;;5.56;100.00;99954.41;4951028;29;20138;-84
2022/12/23 01:16:18;;;;;;;18.70;3.53;;;;;;;5.65;100.00;99969.75;4950294;28;20067;-84
2022/12/23 01:18:46;;;;;;;13.52;2.42;;;;;;;5.54;100.00;99946.66;4949086;29;20058;-84
2022/12/23 01:21:13;;;;;;;19.83;3.38;;;;;;;5.62;100.00;99962.88;4963310;28;20059;-84
2022/12/23 01:23:40;;;;;;;18.77;3.28;;;;;;;5.49;100.00;99939.03;4945838;28;20054;-85
2022/12/23 01:26:07;;;;;;;11.52;2.20;;;;;;;5.93;100.00;99994.88;4953660;28;20051;-84
2022/12/23 01:28:36;;;;;;;8.60;2.30;;;;;;;5.64;100.00;99966.28;4965324;28;20048;-84
2022/12/23 01:31:06;;;;;;;12.93;3.05;;;;;;;5.49;100.00;99922.59;4966882;28;20078;-84
2022/12/23 01:33:35;;;;;;;13.50;2.53;;;;;;;6.03;100.00;100022.31;4939976;28;20047;-84
2022/12/23 01:36:06;;;;;;;14.95;2.75;;;;;;;5.97;100.00;100005.19;4952524;28;20055;-85
2022/12/23 01:38:34;;;;;;;9.82;2.58;;;;;;;6.05;100.00;100016.16;4965346;28;20505;-85
2022/12/23 01:41:00;;;;;;;15.65;2.83;;;;;;;5.52;100.00;99956.25;4950657;28;20051;-85
2022/12/23 01:43:49;;;;;;;20.55;3.28;;;;;;;6.12;100.00;100013.41;4952500;28;20055;-84
2022/12/23 01:46:17;;;;;;;12.05;2.20;;;;;;;5.98;100.00;100003.41;4963578;28;20066;-84
2022/12/23 01:48:48;;;;;;;9.23;2.42;;;;;;;5.91;100.00;99981.94;4967371;28;20406;-84
2022/12/23 01:51:21;;;;;;;17.55;2.72;;;;;;;5.60;100.00;99959.47;4942184;28;20092;-84
2022/12/23 01:53:52;;;;;;;14.63;2.80;;;;;;;5.82;100.00;99990.00;4953317;29;20059;-84
2022/12/23 01:56:23;;;;;;;18.75;4.43;;;;;;;5.63;100.00;99964.59;4949831;28;20135;-85
2022/12/23 01:58:57;;;;;;;14.30;2.50;;;;;;;5.94;100.00;99997.44;4953849;29;20051;-85
2022/12/23 02:04:14;;;;;;;17.80;4.65;;;;;;;5.96;100.00;100016.47;4949161;29;20382;-84
2022/12/23 02:09:39;;;;;;;12.13;2.83;;;;;;;5.99;100.00;100018.13;4943933;28;20781;-84
2022/12/23 02:12:31;;;;;;;13.57;3.08;;;;;;;6.02;100.00;100024.09;4950924;29;20053;-84
2022/12/23 02:18:39;;;;;;;7.88;2.83;;;;;;;5.67;100.00;99976.59;4954160;28;20101;-85
2022/12/23 02:21:23;;;;;;;10.50;2.70;;;;;;;5.95;100.00;100021.66;4949315;29;20051;-84
2022/12/23 02:24:02;;;;;;;11.02;2.40;;;;;;;5.93;100.00;100024.31;4952236;28;20074;-84
2022/12/23 02:26:59;;;;;;;10.77;2.65;;;;;;;6.07;100.00;100023.94;4952317;28;20074;-84
2022/12/23 02:29:32;;;;;;;10.30;2.92;;;;;;;6.00;100.00;100022.41;4952662;28;20448;-84
2022/12/23 02:32:38;;;;;;;7.15;2.40;;;;;;;5.97;100.00;100001.75;4952036;28;20043;-84
2022/12/23 02:35:13;;;;;;;7.15;1.60;;;;;;;5.91;100.00;99987.13;4941884;29;20102;-85
2022/12/23 02:37:53;;;;;;;8.57;2.13;;;;;;;6.18;100.00;100029.66;4951972;29;20047;-84
2022/12/23 02:40:39;;;;;;;10.73;1.85;;;;;;;6.24;100.00;100032.06;4946796;29;20058;-84
2022/12/23 02:43:20;;;;;;;8.75;2.13;;;;;;;6.18;100.00;100026.19;4951830;28;20047;-84
2022/12/23 02:45:55;;;;;;;10.93;2.10;;;;;;;6.20;100.00;100027.03;4952188;28;20074;-85
2022/12/23 02:48:28;;;;;;;8.52;1.90;;;;;;;6.34;100.00;100022.25;4948378;28;20489;-84
2022/12/23 02:50:57;;;;;;;13.60;2.53;;;;;;;5.79;100.00;99946.81;4950488;28;20055;-84
2022/12/23 02:53:32;;;;;;;11.20;2.20;;;;;;;6.19;100.00;99991.50;4951152;28;20047;-85
2022/12/23 02:56:01;;;;;;;16.10;3.22;;;;;;;6.11;100.00;100003.88;4940165;28;20059;-84
2022/12/23 02:58:33;;;;;;;11.43;2.10;;;;;;;6.07;100.00;100006.59;4934349;28;20376;-84
2022/12/23 03:01:02;;;;;;;10.57;1.80;;;;;;;6.00;100.00;99984.31;4952374;28;20524;-84
2022/12/23 03:03:30;;;;;;;15.85;2.67;;;;;;;5.90;100.00;99999.28;4950395;28;20051;-84
2022/12/23 03:05:57;;;;;;;7.68;2.38;;;;;;;6.03;100.00;100006.72;4939169;29;20055;-85
2022/12/23 03:08:28;;;;;;;8.60;2.10;;;;;;;6.23;100.00;100032.09;4952330;28;20141;-85
2022/12/23 03:11:14;;;;;;;22.85;3.85;;;;;;;5.93;100.00;100008.72;4951151;28;20126;-84
2022/12/23 03:14:10;;;;;;;9.88;2.00;;;;;;;6.02;100.00;100046.59;4951768;28;20047;-85
2022/12/23 03:16:41;;;;;;;10.70;2.00;;;;;;;6.16;100.00;100057.47;4952915;28;20051;-84
2022/12/23 03:19:23;;;;;;;9.82;2.28;;;;;;;6.20;100.00;100055.63;4959462;28;20074;-85
2022/12/23 03:22:05;;;;;;;7.93;1.88;;;;;;;6.20;100.00;100058.22;4958171;28;20067;-85
2022/12/23 03:24:35;;;;;;;10.68;2.13;;;;;;;6.19;100.00;100056.50;4955171;28;20089;-85
2022/12/23 03:27:17;;;;;;;12.00;2.47;;;;;;;6.25;100.00;100061.50;4951154;28;20051;-84
2022/12/23 03:29:55;;;;;;;9.80;2.35;;;;;;;6.23;100.00;100066.78;4952953;28;20055;-84
2022/12/23 03:32:24;;;;;;;13.88;3.45;;;;;;;6.25;100.00;100062.38;4950140;28;20051;-84
2022/12/23 03:34:55;;;;;;;8.93;2.10;;;;;;;6.07;100.00;100030.00;4954612;28;20058;-85
2022/12/23 03:37:25;;;;;;;8.27;1.60;;;;;;;6.03;100.00;100017.97;4952454;28;20047;-84
2022/12/23 03:39:57;;;;;;;7.63;1.77;;;;;;;6.32;100.00;100047.44;4950545;28;20497;-84
2022/12/23 03:42:37;;;;;;;8.90;2.43;;;;;;;6.19;100.00;100022.72;4945030;28;20056;-85
2022/12/23 03:45:14;;;;;;;8.63;2.05;;;;;;;6.10;100.00;100012.59;4945838;28;20767;-86
2022/12/23 03:48:18;;;;;;;11.50;2.38;;;;;;;6.32;100.00;100052.66;4936038;29;20083;-86
2022/12/23 03:50:48;;;;;;;11.27;2.30;;;;;;;6.22;100.00;100044.25;4949128;29;20055;-86
2022/12/23 03:53:23;;;;;;;7.00;1.58;;;;;;;6.20;100.00;100038.25;4949988;29;20047;-86
2022/12/23 03:55:58;;;;;;;8.77;2.20;;;;;;;6.20;100.00;100048.66;4948350;28;20470;-86
2022/12/23 03:58:36;;;;;;;9.38;2.20;;;;;;;5.96;100.00;100020.81;4947722;29;20122;-85
2022/12/23 04:01:17;;;;;;;12.15;2.00;;;;;;;6.11;100.00;100050.66;4949465;28;20051;-86
2022/12/23 04:03:44;;;;;;;11.00;2.30;;;;;;;6.09;100.00;100048.13;4963916;28;20095;-84
2022/12/23 04:06:15;;;;;;;16.42;2.45;;;;;;;5.90;100.00;100025.25;4952096;28;20127;-83
2022/12/23 04:08:45;;;;;;;9.57;2.72;;;;;;;5.83;100.00;100031.53;4950400;29;20138;-84
2022/12/23 04:11:12;;;;;;;10.23;2.38;;;;;;;5.66;100.00;100008.63;4949636;28;20058;-84
2022/12/23 04:13:39;;;;;;;8.30;2.15;;;;;;;5.92;100.00;100051.19;4950535;28;20058;-83
2022/12/23 04:16:06;;;;;;;8.73;1.90;;;;;;;5.90;100.00;100038.25;4951862;28;20498;-85
2022/12/23 04:18:33;;;;;;;11.63;3.40;;;;;;;5.89;100.00;100046.09;4950491;28;20055;-84
2022/12/23 04:21:00;;;;;;;11.50;2.15;;;;;;;5.65;100.00;100021.69;4949277;28;20404;-84
2022/12/23 04:23:26;;;;;;;15.02;2.67;;;;;;;5.68;100.00;100022.47;4966473;28;20481;-84
2022/12/23 04:25:53;;;;;;;10.70;2.03;;;;;;;5.51;100.00;99999.56;4950207;28;20063;-84
2022/12/23 04:28:20;;;;;;;6.50;1.65;;;;;;;5.33;100.00;99981.91;4948277;28;20382;-84
2022/12/23 04:30:46;;;;;;;10.25;2.92;;;;;;;5.65;100.00;100042.47;4949408;29;20051;-84
2022/12/23 04:33:13;;;;;;;10.02;2.38;;;;;;;5.59;100.00;100024.44;4938345;28;20052;-84
2022/12/23 04:35:40;;;;;;;11.90;2.13;;;;;;;5.32;100.00;99981.03;4949733;28;20123;-84
2022/12/23 04:38:07;;;;;;;8.18;1.83;;;;;;;5.82;100.00;100035.00;4944293;29;20055;-84
2022/12/23 04:40:33;;;;;;;6.57;2.13;;;;;;;5.97;100.00;100040.72;4936861;28;20059;-84
2022/12/23 04:43:00;;;;;;;7.00;1.90;;;;;;;5.82;100.00;100026.38;4950451;29;20047;-84
2022/12/23 04:45:27;;;;;;;10.25;2.25;;;;;;;5.49;100.00;99969.34;4966050;28;20051;-84
2022/12/23 04:47:54;;;;;;;18.23;4.82;;;;;;;5.58;100.00;99986.38;4951585;28;20054;-85
2022/12/23 04:50:20;;;;;;;11.93;2.00;;;;;;;5.72;100.00;100007.63;4946729;28;20484;-84
2022/12/23 04:52:47;;;;;;;8.02;2.03;;;;;;;5.82;100.00;100001.25;4949535;28;20119;-84
2022/12/23 04:55:14;;;;;;;9.32;2.00;;;;;;;5.75;100.00;99978.09;4937432;28;20044;-84
2022/12/23 04:57:41;;;;;;;8.52;2.17;;;;;;;5.73;100.00;99995.47;4949314;29;20051;-84
2022/12/23 05:00:08;;;;;;;9.05;1.75;;;;;;;6.00;100.00;100007.69;4939187;29;20059;-84
2022/12/23 05:02:35;;;;;;;9.27;1.73;;;;;;;5.90;100.00;99982.84;4944624;28;20048;-84
2022/12/23 05:05:03;;;;;;;7.78;2.20;;;;;;;5.91;100.00;99981.94;4940998;29;20171;-84
2022/12/23 05:07:29;;;;;;;7.20;1.70;;;;;;;5.87;100.00;99964.75;4950280;29;20512;-84
2022/12/23 05:10:00;;;;;;;11.20;2.05;;;;;;;6.10;100.00;100003.03;4949638;28;20051;-84
2022/12/23 05:12:29;;;;;;;7.75;1.67;;;;;;;6.08;100.00;100010.03;4948307;28;20047;-84
2022/12/23 05:14:56;;;;;;;7.63;1.60;;;;;;;6.08;100.00;100004.84;4937540;29;20051;-85
2022/12/23 05:17:22;;;;;;;7.97;1.90;;;;;;;6.23;100.00;100021.72;4950450;29;20051;-85
2022/12/23 05:19:49;;;;;;;5.65;2.10;;;;;;;5.96;100.00;99981.84;4945027;29;20066;-85
2022/12/23 05:22:16;;;;;;;6.72;1.60;;;;;;;5.93;100.00;99979.28;4944666;29;20055;-84
2022/12/23 05:24:43;;;;;;;8.70;1.88;;;;;;;6.07;100.00;100000.53;4951241;28;20051;-84
2022/12/23 05:27:09;;;;;;;9.20;1.95;;;;;;;5.95;100.00;99993.94;4954924;28;20067;-84
2022/12/23 05:29:36;;;;;;;6.13;1.58;;;;;;;6.25;100.00;100044.19;4953141;28;20059;-85
2022/12/23 05:32:03;;;;;;;9.00;1.60;;;;;;;6.11;100.00;100022.97;4952645;28;20789;-85
2022/12/23 05:34:30;;;;;;;5.15;1.70;;;;;;;6.08;100.00;100023.88;4954017;29;20405;-84
2022/12/23 05:36:57;;;;;;;5.45;1.88;;;;;;;6.05;100.00;100017.94;4964853;28;20521;-85
2022/12/23 05:39:23;;;;;;;6.75;1.60;;;;;;;5.76;100.00;99982.41;4953607;28;20569;-85
2022/12/23 05:41:50;;;;;;;9.60;2.08;;;;;;;5.76;100.00;100009.22;4948521;29;20047;-85
2022/12/23 05:44:17;;;;;;;7.28;1.65;;;;;;;5.71;100.00;100008.50;4952541;28;20058;-85
2022/12/23 05:46:43;;;;;;;7.82;1.63;;;;;;;5.75;100.00;100009.28;4950355;28;20059;-85
2022/12/23 05:49:10;;;;;;;13.48;2.17;;;;;;;5.65;100.00;99993.97;4952231;28;20399;-85
2022/12/23 05:51:37;;;;;;;5.63;1.60;;;;;;;5.81;100.00;100014.31;4947833;28;20058;-84
2022/12/23 05:54:04;;;;;;;13.65;2.22;;;;;;;5.82;100.00;100008.19;4963860;28;20054;-85
2022/12/23 05:56:30;;;;;;;10.02;1.73;;;;;;;5.69;100.00;99989.53;4948653;29;20099;-85
2022/12/23 05:58:57;;;;;;;6.95;2.28;;;;;;;5.85;100.00;100013.31;4949918;28;20118;-85
2022/12/23 06:01:24;;;;;;;11.52;1.88;;;;;;;6.10;100.00;100041.19;4943393;29;20414;-85
2022/12/23 06:03:50;;;;;;;9.02;1.73;;;;;;;5.96;100.00;100020.81;4949856;28;20058;-85
2022/12/23 06:06:17;;;;;;;6.63;1.88;;;;;;;5.75;100.00;99985.91;4942664;28;20055;-85
2022/12/23 06:08:44;;;;;;;9.10;1.70;;;;;;;6.05;100.00;100025.72;4949911;28;20055;-85
2022/12/23 06:11:12;;;;;;;9.65;1.95;;;;;;;5.50;100.00;99943.31;4946184;28;20070;-85
2022/12/23 06:13:38;;;;;;;8.80;2.13;;;;;;;5.79;100.00;99990.97;4949371;28;20137;-85
2022/12/23 06:16:05;;;;;;;8.95;1.80;;;;;;;6.17;100.00;100055.69;4947979;28;20062;-85
2022/12/23 06:18:32;;;;;;;9.10;1.73;;;;;;;6.28;100.00;100058.81;4942242;29;20062;-85
2022/12/23 06:20:59;;;;;;;8.80;2.17;;;;;;;5.72;100.00;99981.66;4948419;28;20047;-85
2022/12/23 06:23:26;;;;;;;10.18;1.80;;;;;;;6.32;100.00;100055.25;4951415;28;20047;-85
2022/12/23 06:26:00;;;;;;;6.05;1.55;;;;;;;6.35;100.00;100043.88;4945474;28;20081;-85
2022/12/23 06:28:28;;;;;;;7.38;1.80;;;;;;;6.16;100.00;100015.00;4950937;28;20106;-85
2022/12/23 06:30:56;;;;;;;7.60;1.70;;;;;;;6.04;100.00;99985.06;4951405;29;20047;-86
2022/12/23 06:33:23;;;;;;;5.13;1.30;;;;;;;6.41;100.00;100036.75;4948590;28;20106;-86
2022/12/23 06:35:50;;;;;;;8.15;1.83;;;;;;;6.53;100.00;100029.44;4951729;28;20052;-86
2022/12/23 06:38:17;;;;;;;9.13;1.63;;;;;;;6.55;100.00;100030.25;4951399;28;20513;-85
2022/12/23 06:40:43;;;;;;;11.20;1.67;;;;;;;6.63;100.00;100041.25;4960893;28;20055;-87
2022/12/23 06:43:12;;;;;;;7.05;1.73;;;;;;;6.62;100.00;100040.41;4950987;28;20055;-85
2022/12/23 06:45:39;;;;;;;11.38;1.40;;;;;;;6.67;100.00;100032.44;4948259;28;20130;-85
2022/12/23 06:48:06;;;;;;;6.68;1.77;;;;;;;6.60;100.00;100016.19;4948697;28;20062;-84
2022/12/23 06:50:33;;;;;;;11.50;2.72;;;;;;;6.71;100.00;100018.47;4948955;28;20394;-85
2022/12/23 06:53:00;;;;;;;10.52;1.70;;;;;;;6.85;100.00;100028.38;4954932;28;20058;-84
2022/12/23 06:55:26;;;;;;;4.18;1.30;;;;;;;6.80;100.00;100041.56;4945168;28;21448;-85
2022/12/23 06:57:53;;;;;;;13.30;2.17;;;;;;;6.65;100.00;100019.47;4948756;28;20043;-84
2022/12/23 07:00:20;;;;;;;7.65;1.42;;;;;;;6.58;100.00;100004.13;4945849;28;20482;-84
2022/12/23 07:02:47;;;;;;;8.82;1.75;;;;;;;6.38;100.00;99986.59;4953466;28;20398;-84
2022/12/23 07:05:15;;;;;;;7.00;1.80;;;;;;;6.39;100.00;99996.06;4947933;28;20472;-85
2022/12/23 07:07:42;;;;;;;9.02;2.38;;;;;;;6.56;100.00;100018.94;4963149;28;20134;-84
2022/12/23 07:10:09;;;;;;;6.57;1.70;;;;;;;6.29;100.00;99992.94;4948773;29;20399;-85
2022/12/23 07:12:40;;;;;;;5.50;1.70;;;;;;;6.46;100.00;100007.97;4960588;28;20130;-86
2022/12/23 07:15:15;;;;;;;6.50;1.95;;;;;;;6.53;100.00;100006.03;4947330;29;20122;-86
2022/12/23 07:17:42;;;;;;;4.95;1.38;;;;;;;6.35;100.00;99984.91;4946418;28;20055;-85
2022/12/23 07:20:12;;;;;;;14.98;2.20;;;;;;;6.46;100.00;99997.56;4948274;29;20074;-86
2022/12/23 07:22:38;;;;;;;7.22;1.92;;;;;;;6.64;100.00;99999.59;4947627;28;20059;-86
2022/12/23 07:25:06;;;;;;;5.30;1.45;;;;;;;6.71;100.00;99991.56;4947860;29;20055;-86
2022/12/23 07:27:33;;;;;;;5.95;1.60;;;;;;;6.87;100.00;100007.50;4945800;29;20412;-85
2022/12/23 07:29:59;;;;;;;8.68;1.80;;;;;;;6.38;100.00;99934.59;4945598;28;20051;-85
2022/12/23 07:32:26;;;;;;;6.35;2.03;;;;;;;6.56;100.00;99975.56;4949902;28;20556;-85
2022/12/23 07:34:53;;;;;;;6.30;1.50;;;;;;;6.23;100.00;99925.53;4944245;29;20055;-84
2022/12/23 07:37:19;;;;;;;10.32;2.55;;;;;;;6.52;100.00;99960.97;4949861;29;20512;-85
2022/12/23 07:39:46;;;;;;;23.67;4.80;;;;;;;6.30;100.00;99942.63;4944791;28;20051;-85
2022/12/23 07:42:13;;;;;;;9.90;2.72;;;;;;;6.56;100.00;99961.72;4963000;28;20059;-84
2022/12/23 07:45:00;;;;;;;8.05;1.77;;;;;;;6.73;100.00;99971.53;4959427;29;20150;-83
2022/12/23 07:47:30;;;;;;;7.63;1.67;;;;;;;6.42;100.00;99937.00;4960190;28;20051;-84
2022/12/23 07:49:57;;;;;;;6.78;1.40;;;;;;;6.70;100.00;99980.31;4961912;28;20051;-84
2022/12/23 07:52:24;;;;;;;8.10;1.67;;;;;;;6.89;100.00;100013.50;4978652;28;20111;-83
2022/12/23 07:54:51;;;;;;;7.40;1.38;;;;;;;6.28;100.00;99934.03;4962200;28;20047;-87
2022/12/23 07:57:28;;;;;;;5.72;1.90;;;;;;;6.63;100.00;100010.03;4979724;28;20043;-82
2022/12/23 07:59:57;;;;;;;7.85;1.60;;;;;;;6.55;100.00;99993.81;4969217;29;20035;-86
2022/12/23 08:02:38;;;;;;;7.05;1.70;;;;;;;6.53;100.00;99983.47;4966181;29;20035;-85
2022/12/23 08:05:19;;;;;;;4.70;1.48;;;;;;;6.40;100.00;99953.59;4969304;29;20043;-86
2022/12/23 08:07:59;;;;;;;7.53;1.42;;;;;;;6.65;100.00;99988.28;4968387;28;20055;-83
2022/12/23 08:10:27;;;;;;;6.13;1.67;;;;;;;6.59;100.00;99983.28;4965464;29;20046;-84
2022/12/23 08:13:10;;;;;;;6.10;1.23;;;;;;;6.54;100.00;99973.94;4961346;28;20083;-83
2022/12/23 08:15:37;;;;;;;6.13;1.48;;;;;;;6.50;100.00;99985.31;4965101;28;20118;-83
2022/12/23 08:18:04;;;;;;;4.20;1.35;;;;;;;6.60;100.00;99991.94;4967045;28;20516;-84
2022/12/23 08:20:31;;;;;;;12.45;1.52;;;;;;;6.58;100.00;100004.13;4977125;28;20091;-84
2022/12/23 08:22:57;;;;;;;6.88;1.60;;;;;;;6.08;100.00;99914.72;4966709;28;20051;-85
2022/12/23 08:25:38;;;;;;;8.23;1.60;;;;;;;6.26;100.00;99964.44;4965418;28;20051;-82
2022/12/23 08:28:05;;;;;;;8.55;1.75;;;;;;;6.29;100.00;99955.69;4964029;28;20048;-84
2022/12/23 08:30:31;;;;;;;4.85;1.80;;;;;;;6.24;100.00;99953.22;4961531;28;20051;-83
2022/12/23 08:32:58;;;;;;;9.40;2.22;;;;;;;6.27;100.00;99953.13;4957542;29;20044;-84
2022/12/23 08:35:25;;;;;;;6.50;1.92;;;;;;;6.26;100.00;99960.06;4955055;28;20044;-83
2022/12/23 08:37:52;;;;;;;6.28;1.45;;;;;;;6.51;100.00;99981.84;4951160;29;20073;-82
2022/12/23 08:40:19;;;;;;;5.07;1.40;;;;;;;6.35;100.00;99958.06;4963067;28;20059;-83
2022/12/23 08:42:46;;;;;;;5.07;1.77;;;;;;;6.34;100.00;99954.63;4961448;28;20082;-83
2022/12/23 08:45:14;;;;;;;7.38;2.00;;;;;;;6.00;100.00;99921.94;4961352;28;20047;-83
2022/12/23 08:47:41;;;;;;;7.63;1.95;;;;;;;6.16;100.00;99950.00;4962640;28;20070;-83
2022/12/23 08:50:10;;;;;;;8.02;1.83;;;;;;;6.37;100.00;99970.13;4955453;28;20055;-82
2022/12/23 08:52:37;;;;;;;6.35;1.50;;;;;;;6.08;100.00;99909.53;4957764;28;20055;-82
2022/12/23 08:55:04;;;;;;;5.80;2.38;;;;;;;6.07;100.00;99919.97;4959794;29;20106;-82
2022/12/23 08:57:32;;;;;;;6.53;1.65;;;;;;;6.52;100.00;99975.75;4953174;28;20052;-82
2022/12/23 08:59:59;;;;;;;4.85;2.10;;;;;;;6.57;100.00;99953.88;4958725;28;20043;-83
2022/12/23 09:02:26;;;;;;;5.47;2.00;;;;;;;6.52;100.00;99955.78;4959475;28;20059;-82
2022/12/23 09:04:53;;;;;;;7.10;1.45;;;;;;;6.45;100.00;99959.50;4960763;29;20047;-81
2022/12/23 09:07:20;;;;;;;9.27;1.77;;;;;;;6.43;100.00;99943.94;4962781;28;20047;-81
2022/12/23 09:09:46;;;;;;;8.65;2.05;;;;;;;6.15;100.00;99940.53;4958021;28;20051;-82
2022/12/23 09:12:13;;;;;;;7.28;2.15;;;;;;;6.68;100.00;100010.75;4961514;28;20062;-82
2022/12/23 09:14:43;;;;;;;9.13;1.90;;;;;;;6.44;100.00;99986.38;4961106;28;20043;-82
2022/12/23 09:17:10;;;;;;;8.45;1.95;;;;;;;6.49;100.00;99984.47;4958063;28;20060;-81
2022/12/23 09:19:37;;;;;;;5.03;1.50;;;;;;;6.18;100.00;99928.28;4962484;28;20050;-82
2022/12/23 09:22:04;;;;;;;9.73;1.98;;;;;;;6.55;100.00;99986.03;4961955;29;20089;-82
2022/12/23 09:24:31;;;;;;;13.90;1.88;;;;;;;6.45;100.00;99957.72;4965588;29;20134;-82
2022/12/23 09:26:58;;;;;;;9.05;2.15;;;;;;;6.54;100.00;99945.31;4961938;28;20537;-82
2022/12/23 09:29:25;;;;;;;6.45;1.80;;;;;;;6.58;100.00;99960.75;4965710;29;20110;-80
2022/12/23 09:31:51;;;;;;;7.57;1.63;;;;;;;6.69;100.00;99965.59;4966798;28;20054;-82
2022/12/23 09:34:19;;;;;;;5.82;1.55;;;;;;;6.56;100.00;99920.13;4966471;28;20054;-82
2022/12/23 09:36:46;;;;;;;7.75;1.88;;;;;;;6.92;100.00;99969.19;4973224;28;20051;-82
2022/12/23 09:39:20;;;;;;;9.00;2.30;;;;;;;6.55;100.00;99947.00;4966665;28;20055;-82
2022/12/23 09:42:02;;;;;;;9.95;2.28;;;;;;;6.98;100.00;99995.84;4966734;28;20087;-82
2022/12/23 09:44:42;;;;;;;9.25;2.15;;;;;;;7.02;100.00;99999.19;4973933;28;20043;-82
2022/12/23 09:47:14;;;;;;;7.32;1.90;;;;;;;6.65;100.00;99967.47;4963174;29;20051;-81
2022/12/23 09:49:49;;;;;;;8.80;1.70;;;;;;;6.87;100.00;99984.97;4962518;29;20054;-81
2022/12/23 09:52:24;;;;;;;10.73;2.13;;;;;;;6.86;100.00;99998.03;4961946;28;20273;-82
2022/12/23 09:54:54;;;;;;;5.10;1.50;;;;;;;6.17;100.00;99878.94;4960818;28;20052;-83
2022/12/23 09:57:25;;;;;;;5.75;1.45;;;;;;;6.77;100.00;99966.19;4967171;28;20059;-83
2022/12/23 09:59:58;;;;;;;4.47;1.45;;;;;;;7.00;100.00;100004.44;4955488;28;20043;-83
2022/12/23 10:02:34;;;;;;;8.73;2.00;;;;;;;6.65;100.00;99954.44;4971418;28;20682;-82
2022/12/23 10:05:10;;;;;;;13.82;1.65;;;;;;;6.75;100.00;99977.56;4962012;28;20051;-82
2022/12/23 10:07:51;;;;;;;6.40;1.70;;;;;;;6.45;100.00;99921.31;4961277;29;20058;-82
2022/12/23 10:10:51;;;;;;;12.90;2.17;;;;;;;6.96;100.00;100005.47;4963522;29;20130;-83
2022/12/23 10:13:41;;;;;;;8.88;1.92;;;;;;;6.85;100.00;99994.56;4970281;28;20051;-84
2022/12/23 10:16:15;;;;;;;4.13;1.65;;;;;;;6.99;100.00;100002.75;4963339;29;20055;-84
2022/12/23 10:18:59;;;;;;;13.70;2.03;;;;;;;6.33;100.00;99920.88;4958629;29;20154;-79
2022/12/23 10:21:41;;;;;;;6.15;2.15;;;;;;;6.73;100.00;99946.41;4956312;28;20485;-81
2022/12/23 10:24:28;;;;;;;7.03;1.95;;;;;;;6.99;100.00;99970.66;4960235;28;20705;-81
2022/12/23 10:26:57;;;;;;;7.32;2.50;;;;;;;6.75;100.00;99943.75;4956601;28;20051;-81
2022/12/23 10:29:28;;;;;;;7.43;1.90;;;;;;;6.22;100.00;99872.69;4977663;28;20204;-82
2022/12/23 10:32:37;;;;;;;10.05;1.98;;;;;;;6.30;100.00;99900.19;4969128;28;20047;-82
2022/12/23 10:35:52;;;;;;;8.80;1.83;;;;;;;6.80;100.00;99965.25;4964180;28;20054;-82
2022/12/23 10:38:52;;;;;;;7.40;2.13;;;;;;;6.84;100.00;99969.44;4921630;29;20071;-82
2022/12/23 10:41:37;;;;;;;9.38;2.42;;;;;;;6.59;100.00;99933.03;4922887;29;20187;-81
2022/12/23 10:44:25;;;;;;;10.57;2.25;;;;;;;6.98;100.00;99966.38;4956588;29;20043;-83
2022/12/23 10:47:19;;;;;;;10.30;2.58;;;;;;;6.89;100.00;99951.94;4968861;28;20196;-83
2022/12/23 10:50:12;;;;;;;13.77;3.03;;;;;;;7.06;100.00;99966.94;4958486;29;20783;-83
2022/12/23 10:52:43;;;;;;;12.55;2.97;;;;;;;6.97;100.00;99951.66;4964188;28;20052;-83
2022/12/23 10:55:22;;;;;;;14.95;2.60;;;;;;;6.64;100.00;99916.34;4962330;29;20047;-82
2022/12/23 10:58:16;;;;;;;11.18;2.20;;;;;;;6.88;100.00;99962.38;4968192;28;20134;-83
2022/12/23 11:00:56;;;;;;;10.75;2.38;;;;;;;6.64;100.00;99912.91;4967395;28;20059;-83
2022/12/23 11:03:30;;;;;;;10.68;2.78;;;;;;;6.82;100.00;99942.63;4969388;28;20297;-85
2022/12/23 11:05:58;;;;;;;9.60;2.25;;;;;;;6.70;100.00;99901.44;4967267;29;20043;-85
2022/12/23 11:08:30;;;;;;;9.13;2.40;;;;;;;6.94;100.00;99944.81;4973374;28;20150;-85
2022/12/23 11:11:11;;;;;;;9.25;2.88;;;;;;;7.11;100.00;99925.13;4975754;28;20522;-86
2022/12/23 11:13:52;;;;;;;9.52;2.80;;;;;;;6.90;100.00;99918.94;4971182;28;20049;-86
2022/12/23 11:16:32;;;;;;;12.38;3.05;;;;;;;7.05;100.00;99931.41;4970342;28;20102;-88
2022/12/23 11:19:05;;;;;;;10.15;2.60;;;;;;;7.23;100.00;99948.97;4977242;28;20051;-86
2022/12/23 11:21:58;;;;;;;8.60;2.15;;;;;;;7.10;100.00;99949.44;4961987;29;20049;-86
2022/12/23 11:24:33;;;;;;;15.18;3.28;;;;;;;6.97;100.00;99931.66;4955669;29;20097;-85
2022/12/23 11:27:14;;;;;;;5.80;1.70;;;;;;;7.13;100.00;99939.78;4965643;29;20062;-85
2022/12/23 11:29:50;;;;;;;;;;;;;;;7.29;100.00;99941.84;4970525;29;20043;-89
2022/12/23 11:32:32;;;;;;;8.23;1.67;;;;;;;7.21;100.00;99923.91;4968389;28;19929;-85
2022/12/23 11:34:59;;;;;;;11.73;2.15;;;;;;;6.79;100.00;99886.34;4964393;28;20059;-85
2022/12/23 11:37:41;;;;;;;8.02;2.97;;;;;;;6.48;100.00;99855.38;4971202;28;20087;-86
2022/12/23 11:40:25;;;;;;;10.85;2.22;;;;;;;6.99;100.00;99908.19;4972711;28;20099;-87
2022/12/23 11:43:00;;;;;;;9.68;2.20;;;;;;;6.88;100.00;99884.31;4972564;29;20027;-86
2022/12/23 11:45:41;;;;;;;7.13;2.33;;;;;;;7.04;100.00;99920.13;4958340;29;20066;-86
2022/12/23 11:48:28;;;;;;;14.20;2.10;;;;;;;6.88;100.00;99860.91;4964348;29;20066;-82
2022/12/23 11:51:02;;;;;;;8.07;1.52;;;;;;;7.25;100.00;99912.44;4970697;28;20043;-84
2022/12/23 11:53:43;;;;;;;8.95;2.03;;;;;;;6.88;100.00;99850.50;4970874;29;20050;-83
2022/12/23 11:56:13;;;;;;;5.93;1.65;;;;;;;7.38;100.00;99912.84;4963980;28;20043;-84
2022/12/23 11:58:45;;;;;;;15.90;5.60;;;;;;;7.33;100.00;99901.75;4963326;29;20051;-84
2022/12/23 12:01:19;;;;;;;65.85;32.17;;;;;;;6.96;100.00;99856.28;4961229;28;20063;-84
2022/12/23 12:03:52;;;;;;;14.32;5.47;;;;;;;7.03;100.00;99871.59;4966543;29;20099;-84
2022/12/23 12:06:21;;;;;;;14.77;5.15;;;;;;;6.89;100.00;99859.97;4971408;28;20039;-84
2022/12/23 12:08:50;;;;;;;23.40;9.55;;;;;;;6.78;100.00;99848.22;4971923;28;20043;-84
2022/12/23 12:11:25;;;;;;;18.10;7.18;;;;;;;6.81;100.00;99831.63;4974017;28;20051;-84